Time;durP1;ratioP1;P1;durP2;ratioP2;P2;SDS_P1;SDS_P2;PMS_P1;PMS_P2;Temp;Humidity;BMP_temperature;BMP_pressure;BME280_temperature;BME280_humidity;BME280_pressure;Samples;Min_cycle;Max_cycle;Signal;HPM_P1;HPM_P2
2022/01/02 00:01:47;;;;;;;4.70;2.50;;;;;;;4.60;80.60;101283.54;87315;1287;80069;-73
2022/01/02 00:03:58;;;;;;;3.90;2.50;;;;;;;4.59;80.73;101282.88;87275;1287;99863;-72
2022/01/02 00:06:05;;;;;;;3.80;2.40;;;;;;;4.61;80.86;101277.19;87334;1287;88621;-71
2022/01/02 00:08:12;;;;;;;5.10;2.70;;;;;;;4.63;80.80;101272.26;87265;1287;95838;-73
2022/01/02 00:10:22;;;;;;;4.00;2.10;;;;;;;4.57;80.74;101272.19;87287;1287;82068;-70
2022/01/02 00:12:35;;;;;;;5.20;2.30;;;;;;;4.53;80.81;101271.11;87315;1287;82030;-72
2022/01/02 00:14:46;;;;;;;3.80;2.30;;;;;;;4.57;81.08;101268.64;87347;1287;99677;-72
2022/01/02 00:16:56;;;;;;;3.50;2.50;;;;;;;4.61;81.05;101276.50;87167;1288;88413;-71
2022/01/02 00:19:19;;;;;;;4.90;2.40;;;;;;;4.64;81.16;101278.55;87169;1288;95793;-73
2022/01/02 00:21:29;;;;;;;5.30;2.60;;;;;;;4.63;81.17;101280.79;87291;1287;78773;-70
2022/01/02 00:23:48;;;;;;;3.60;2.40;;;;;;;4.59;80.89;101275.05;87291;1287;80779;-69
2022/01/02 00:25:55;;;;;;;4.50;2.50;;;;;;;4.58;80.73;101273.54;87289;1287;99508;-71
2022/01/02 00:28:07;;;;;;;4.20;2.80;;;;;;;4.61;80.66;101265.83;87325;1287;88295;-72
2022/01/02 00:30:17;;;;;;;6.40;3.00;;;;;;;4.54;80.60;101266.05;87324;1287;95747;-72
2022/01/02 00:32:23;;;;;;;4.40;3.20;;;;;;;4.45;80.55;101273.39;87272;1287;78788;-70
2022/01/02 00:34:29;;;;;;;3.40;2.10;;;;;;;4.47;80.74;101279.52;87337;1287;80546;-70
2022/01/02 00:36:39;;;;;;;3.90;2.70;;;;;;;4.49;80.84;101276.48;87257;1287;99659;-71
2022/01/02 00:38:45;;;;;;;3.70;2.30;;;;;;;4.51;80.75;101275.02;87280;1287;87968;-70
2022/01/02 00:40:54;;;;;;;3.60;2.40;;;;;;;4.50;80.62;101270.47;87185;1288;95208;-70
2022/01/02 00:43:04;;;;;;;4.30;2.50;;;;;;;4.54;80.66;101268.17;87310;1287;78118;-69
2022/01/02 00:45:19;;;;;;;3.90;2.40;;;;;;;4.59;80.81;101268.43;87167;1287;83402;-70
2022/01/02 00:47:38;;;;;;;3.40;2.40;;;;;;;4.64;81.03;101264.41;87302;1287;98095;-69
2022/01/02 00:49:57;;;;;;;4.40;2.60;;;;;;;4.61;80.83;101261.34;87185;1288;87678;-69
2022/01/02 00:52:11;;;;;;;3.80;2.40;;;;;;;4.62;80.94;101264.45;87090;1288;94776;-70
2022/01/02 00:54:22;;;;;;;4.20;2.90;;;;;;;4.66;80.87;101266.22;87282;1287;79007;-69
2022/01/02 00:56:32;;;;;;;5.80;2.90;;;;;;;4.65;81.01;101268.09;87209;1288;82537;-70
2022/01/02 00:58:51;;;;;;;4.40;3.20;;;;;;;4.62;81.03;101261.20;87289;1287;99348;-70
2022/01/02 01:01:00;;;;;;;4.80;2.60;;;;;;;4.60;81.00;101257.31;87165;1288;89449;-67
2022/01/02 01:03:14;;;;;;;4.00;2.80;;;;;;;4.61;81.04;101255.26;87296;1287;95472;-69
2022/01/02 01:05:22;;;;;;;;;;;;;;;4.63;81.09;101251.00;87083;1290;79247;-70
2022/01/02 01:07:28;;;;;;;4.40;3.00;;;;;;;4.63;81.26;101245.78;87293;1287;80714;-69
2022/01/02 01:09:35;;;;;;;4.60;3.30;;;;;;;4.65;81.23;101245.09;87364;1287;98954;-69
2022/01/02 01:11:45;;;;;;;4.20;3.00;;;;;;;4.63;81.35;101242.95;87363;1287;89590;-70
2022/01/02 01:13:51;;;;;;;6.10;2.80;;;;;;;4.65;81.27;101240.98;87344;1287;93638;-70
2022/01/02 01:16:00;;;;;;;5.90;3.10;;;;;;;4.66;81.29;101241.12;87367;1287;79947;-69
2022/01/02 01:18:08;;;;;;;4.20;3.30;;;;;;;4.68;81.32;101242.91;87362;1287;80954;-69
2022/01/02 01:20:16;;;;;;;6.80;3.20;;;;;;;4.69;81.32;101240.64;87357;1287;100455;-70
2022/01/02 01:22:25;;;;;;;6.00;3.40;;;;;;;4.71;81.24;101233.70;87198;1288;89824;-71
2022/01/02 01:24:36;;;;;;;6.00;3.90;;;;;;;4.71;81.35;101231.39;87361;1287;94183;-70
2022/01/02 01:26:47;;;;;;;5.60;3.80;;;;;;;4.66;81.23;101226.48;87342;1287;78182;-69
2022/01/02 01:28:53;;;;;;;5.50;3.10;;;;;;;4.64;81.14;101227.30;87343;1287;80366;-70
2022/01/02 01:31:02;;;;;;;5.20;3.60;;;;;;;4.61;81.12;101226.94;87368;1287;98463;-70
2022/01/02 01:33:11;;;;;;;5.90;3.30;;;;;;;4.60;80.94;101226.80;87347;1287;89574;-70
2022/01/02 01:35:17;;;;;;;7.00;3.90;;;;;;;4.57;81.27;101226.51;87343;1287;94159;-70
2022/01/02 01:37:23;;;;;;;7.10;3.40;;;;;;;4.59;81.02;101216.74;87365;1287;79562;-68
2022/01/02 01:39:29;;;;;;;5.40;3.50;;;;;;;4.60;81.16;101206.61;87360;1287;81251;-68
2022/01/02 01:41:38;;;;;;;6.30;4.10;;;;;;;4.58;81.11;101196.52;87354;1287;99398;-70
2022/01/02 01:44:04;;;;;;;5.30;3.70;;;;;;;4.56;81.05;101186.52;87279;1287;87497;-70
2022/01/02 01:46:10;;;;;;;6.00;3.80;;;;;;;4.53;81.03;101180.67;87287;1287;93729;-69
2022/01/02 01:48:19;;;;;;;6.70;3.60;;;;;;;4.55;81.14;101187.67;87283;1287;77685;-71
2022/01/02 01:50:29;;;;;;;6.70;3.50;;;;;;;4.55;81.10;101188.39;87038;1291;82054;-69
2022/01/02 01:52:39;;;;;;;5.50;3.60;;;;;;;4.52;81.20;101184.91;87279;1287;98681;-68
2022/01/02 01:54:46;;;;;;;6.00;3.20;;;;;;;4.47;81.11;101176.80;87356;1287;88483;-68
2022/01/02 01:56:53;;;;;;;5.20;3.20;;;;;;;4.46;81.21;101177.01;87262;1287;94817;-68
2022/01/02 01:58:59;;;;;;;4.50;2.80;;;;;;;4.46;81.31;101175.23;87277;1287;78588;-69
2022/01/02 02:01:05;;;;;;;3.90;2.70;;;;;;;4.49;81.40;101171.56;87278;1287;80809;-70
2022/01/02 02:03:12;;;;;;;4.50;3.00;;;;;;;4.55;81.44;101171.38;87289;1287;98630;-72
2022/01/02 02:05:18;;;;;;;3.90;2.70;;;;;;;4.60;81.50;101170.59;87312;1287;89114;-69
2022/01/02 02:07:28;;;;;;;6.00;3.40;;;;;;;4.57;81.55;101167.64;87172;1288;96050;-70
2022/01/02 02:09:47;;;;;;;5.70;3.40;;;;;;;4.59;81.62;101168.02;87063;1290;78617;-70
2022/01/02 02:11:58;;;;;;;6.30;3.00;;;;;;;4.59;81.66;101163.06;87192;1288;82107;-69
2022/01/02 02:14:06;;;;;;;4.40;3.30;;;;;;;4.55;81.74;101161.58;87161;1288;98210;-69
2022/01/02 02:16:12;;;;;;;6.30;2.80;;;;;;;4.52;81.73;101158.35;87303;1287;87898;-70
2022/01/02 02:18:21;;;;;;;3.90;3.00;;;;;;;4.49;81.75;101154.98;87158;1288;95939;-69
2022/01/02 02:20:29;;;;;;;4.10;3.00;;;;;;;4.51;81.85;101153.44;87302;1287;80908;-70
2022/01/02 02:22:41;;;;;;;5.10;3.10;;;;;;;4.51;81.84;101145.58;87321;1287;80213;-71
2022/01/02 02:24:47;;;;;;;6.30;2.90;;;;;;;4.53;82.00;101149.68;87179;1287;99332;-70
2022/01/02 02:26:53;;;;;;;4.60;3.00;;;;;;;4.57;82.05;101145.05;87279;1287;89250;-69
2022/01/02 02:29:04;;;;;;;6.60;3.80;;;;;;;4.62;82.17;101144.71;87279;1287;94754;-69
2022/01/02 02:31:12;;;;;;;6.60;3.60;;;;;;;4.69;82.06;101138.97;87310;1287;78817;-69
2022/01/02 02:33:18;;;;;;;6.10;3.80;;;;;;;4.64;82.11;101135.45;87037;1290;84624;-68
2022/01/02 02:35:25;;;;;;;5.10;3.50;;;;;;;4.63;82.04;101133.05;87302;1287;98761;-70
2022/01/02 02:37:31;;;;;;;8.70;4.10;;;;;;;4.65;82.05;101126.45;87154;1288;88166;-69
2022/01/02 02:39:39;;;;;;;5.20;3.20;;;;;;;4.66;82.11;101130.34;87339;1287;94704;-69
2022/01/02 02:41:45;;;;;;;6.10;3.50;;;;;;;4.64;82.11;101131.08;87271;1287;80343;-68
2022/01/02 02:44:00;;;;;;;6.10;3.40;;;;;;;4.62;82.04;101134.05;87371;1287;81704;-68
2022/01/02 02:51:03;;;;;;;5.80;3.80;;;;;;;4.65;82.36;101137.00;87243;1287;95174;-70
2022/01/02 02:53:09;;;;;;;6.90;3.90;;;;;;;4.74;82.51;101133.17;87191;1288;78273;-70
2022/01/02 02:55:14;;;;;;;7.60;4.50;;;;;;;4.74;82.54;101131.25;87298;1287;83328;-72
2022/01/02 02:57:20;;;;;;;7.50;3.90;;;;;;;4.73;82.53;101131.67;87182;1288;99704;-70
2022/01/02 02:59:35;;;;;;;7.30;4.60;;;;;;;4.71;82.51;101123.83;87175;1287;90134;-70
2022/01/02 03:01:44;;;;;;;8.30;5.00;;;;;;;4.68;82.48;101116.71;87175;1288;95272;-70
2022/01/02 03:03:51;;;;;;;7.50;4.30;;;;;;;4.69;82.56;101115.59;87255;1286;78551;-70
2022/01/02 03:06:01;;;;;;;7.60;4.60;;;;;;;4.70;82.49;101115.70;87180;1288;81905;-69
2022/01/02 03:08:07;;;;;;;8.00;4.70;;;;;;;4.66;82.64;101114.61;87283;1287;100032;-66
2022/01/02 03:10:13;;;;;;;7.70;5.10;;;;;;;4.62;82.72;101111.00;87267;1287;89877;-70
2022/01/02 03:12:22;;;;;;;9.00;3.90;;;;;;;4.66;82.92;101112.48;87331;1287;94922;-69
2022/01/02 03:14:28;;;;;;;9.20;4.80;;;;;;;4.67;82.79;101105.58;87240;1287;78190;-70
2022/01/02 03:16:34;;;;;;;7.90;4.30;;;;;;;4.71;82.89;101098.79;87311;1287;82548;-71
2022/01/02 03:18:43;;;;;;;7.80;4.20;;;;;;;4.76;82.92;101094.47;87317;1286;99357;-69
2022/01/02 03:20:49;;;;;;;8.10;5.20;;;;;;;4.81;82.72;101085.84;87323;1287;89117;-69
2022/01/02 03:22:55;;;;;;;8.20;4.70;;;;;;;4.80;82.78;101080.05;87342;1287;95924;-68
2022/01/02 03:25:01;;;;;;;6.80;4.70;;;;;;;4.72;82.97;101068.79;87336;1287;79125;-70
2022/01/02 03:27:08;;;;;;;8.00;4.60;;;;;;;4.67;82.92;101062.91;87337;1286;81886;-69
2022/01/02 03:29:13;;;;;;;6.70;4.50;;;;;;;4.66;83.07;101059.46;87344;1287;98109;-70
2022/01/02 03:31:19;;;;;;;8.40;4.60;;;;;;;4.69;82.88;101060.12;87352;1287;88759;-67
2022/01/02 03:33:26;;;;;;;8.50;5.00;;;;;;;4.72;83.15;101061.03;87340;1287;94186;-68
2022/01/02 03:35:32;;;;;;;9.80;4.50;;;;;;;4.73;83.12;101059.59;87322;1287;79809;-70
2022/01/02 03:37:37;;;;;;;8.10;4.50;;;;;;;4.68;83.28;101052.88;87340;1287;81910;-67
2022/01/02 03:39:43;;;;;;;9.20;4.90;;;;;;;4.74;83.22;101048.61;87290;1287;97369;-69
2022/01/02 03:41:49;;;;;;;12.10;5.90;;;;;;;4.82;83.31;101048.05;87255;1287;89351;-70
2022/01/02 03:43:55;;;;;;;9.70;5.60;;;;;;;4.87;83.34;101049.08;87167;1288;95159;-69
2022/01/02 03:46:05;;;;;;;10.60;6.50;;;;;;;4.83;83.31;101041.53;87164;1288;77110;-70
2022/01/02 03:48:14;;;;;;;8.80;6.20;;;;;;;4.79;83.32;101034.95;87185;1288;82792;-69
2022/01/02 03:50:20;;;;;;;10.70;5.20;;;;;;;4.79;83.35;101031.92;87190;1288;99131;-70
2022/01/02 03:52:30;;;;;;;7.30;5.20;;;;;;;4.77;83.33;101035.80;87237;1287;89563;-70
2022/01/02 03:54:37;;;;;;;9.00;5.30;;;;;;;4.73;83.42;101033.17;87250;1287;95720;-67
2022/01/02 03:56:42;;;;;;;7.60;4.30;;;;;;;4.72;83.48;101030.08;87206;1287;79399;-69
2022/01/02 03:58:48;;;;;;;6.30;4.70;;;;;;;4.69;83.65;101023.55;87273;1287;82497;-68
2022/01/02 04:00:54;;;;;;;8.60;4.70;;;;;;;4.70;83.74;101019.67;87183;1287;99335;-70
2022/01/02 04:03:03;;;;;;;8.10;4.80;;;;;;;4.75;83.74;101009.10;86704;1287;774174;-70
2022/01/02 04:05:12;;;;;;;8.10;5.40;;;;;;;4.72;83.84;101000.95;87276;1287;93758;-70
2022/01/02 04:07:18;;;;;;;7.20;4.80;;;;;;;4.73;83.90;100996.02;87270;1287;81239;-69
2022/01/02 04:09:25;;;;;;;8.30;5.00;;;;;;;4.70;83.94;101001.17;87278;1287;82195;-70
2022/01/02 04:11:31;;;;;;;7.10;4.50;;;;;;;4.65;84.03;101003.55;87288;1287;99098;-71
2022/01/02 04:13:37;;;;;;;7.60;5.60;;;;;;;4.60;84.03;101000.39;87286;1287;88382;-70
2022/01/02 04:15:43;;;;;;;7.80;4.70;;;;;;;4.58;84.06;100994.89;87174;1287;94037;-65
2022/01/02 04:17:52;;;;;;;7.10;4.80;;;;;;;4.58;84.11;100991.73;87251;1287;79321;-68
2022/01/02 04:20:00;;;;;;;10.80;5.10;;;;;;;4.61;84.15;100988.52;87253;1287;82899;-68
2022/01/02 04:22:09;;;;;;;8.50;5.40;;;;;;;4.65;84.29;100978.20;86998;1290;99732;-69
2022/01/02 04:24:15;;;;;;;9.80;5.80;;;;;;;4.69;84.09;100965.92;87277;1287;88978;-69
2022/01/02 04:26:21;;;;;;;8.80;5.60;;;;;;;4.72;84.19;100947.41;87160;1287;94763;-68
2022/01/02 04:28:27;;;;;;;8.90;5.40;;;;;;;4.73;84.17;100943.41;87169;1288;78986;-69
2022/01/02 04:30:36;;;;;;;9.80;5.70;;;;;;;4.72;84.05;100938.15;87307;1287;81709;-69
2022/01/02 04:32:48;;;;;;;8.00;5.70;;;;;;;4.68;84.21;100932.63;87312;1287;99638;-70
2022/01/02 04:34:54;;;;;;;8.80;5.70;;;;;;;4.61;84.15;100921.53;87278;1287;88818;-69
2022/01/02 04:36:59;;;;;;;8.90;5.70;;;;;;;4.57;84.21;100914.96;87147;1288;95629;-69
2022/01/02 04:39:05;;;;;;;9.30;4.90;;;;;;;4.56;84.08;100906.11;87247;1287;80486;-74
2022/01/02 04:41:14;;;;;;;9.00;5.20;;;;;;;4.52;84.36;100899.02;87253;1287;81086;-70
2022/01/02 04:43:20;;;;;;;8.10;5.20;;;;;;;4.52;84.52;100891.52;87143;1288;99452;-70
2022/01/02 04:45:25;;;;;;;7.60;5.10;;;;;;;4.52;84.54;100890.37;87186;1288;89705;-69
2022/01/02 04:47:31;;;;;;;7.80;4.90;;;;;;;4.55;84.58;100887.66;87239;1287;94006;-70
2022/01/02 04:49:37;;;;;;;9.10;4.80;;;;;;;4.57;84.69;100883.92;87240;1288;82765;-68
2022/01/02 04:51:46;;;;;;;8.20;5.10;;;;;;;4.57;84.68;100872.67;87318;1287;82530;-68
2022/01/02 04:53:54;;;;;;;11.00;5.20;;;;;;;4.60;84.76;100870.80;87343;1287;100691;-68
2022/01/02 04:56:00;;;;;;;8.00;5.50;;;;;;;4.64;84.79;100874.19;87363;1287;89117;-69
2022/01/02 04:58:06;;;;;;;9.40;5.80;;;;;;;4.62;84.84;100867.73;87324;1287;94007;-68
2022/01/02 05:00:17;;;;;;;11.60;6.20;;;;;;;4.61;84.87;100869.41;87318;1287;81438;-70
2022/01/02 05:02:22;;;;;;;9.60;5.20;;;;;;;4.56;85.10;100868.66;87357;1287;79951;-68
2022/01/02 05:04:28;;;;;;;8.10;5.00;;;;;;;4.54;84.95;100863.47;87340;1287;99899;-68
2022/01/02 05:06:34;;;;;;;8.10;4.90;;;;;;;4.59;85.05;100860.55;87365;1287;88945;-70
2022/01/02 05:08:45;;;;;;;8.20;4.70;;;;;;;4.61;84.93;100865.86;87338;1287;94453;-68
2022/01/02 05:10:51;;;;;;;8.30;4.90;;;;;;;4.66;85.04;100865.01;87347;1287;79715;-70
2022/01/02 05:12:57;;;;;;;9.60;5.00;;;;;;;4.72;85.02;100871.06;87356;1287;81151;-69
2022/01/02 05:15:05;;;;;;;9.50;5.40;;;;;;;4.79;85.08;100875.28;87154;1288;100608;-68
2022/01/02 05:17:15;;;;;;;7.80;5.30;;;;;;;4.83;85.16;100874.17;87296;1287;89220;-68
2022/01/02 05:19:21;;;;;;;11.40;6.10;;;;;;;4.89;85.08;100864.20;87353;1287;95859;-69
2022/01/02 05:21:26;;;;;;;10.30;5.80;;;;;;;4.88;85.25;100855.91;87272;1287;79300;-69
2022/01/02 05:23:32;;;;;;;8.60;5.90;;;;;;;4.87;85.15;100852.92;87170;1288;82960;-68
2022/01/02 05:25:41;;;;;;;10.40;5.90;;;;;;;4.87;85.12;100852.58;87277;1287;100019;-69
2022/01/02 05:27:48;;;;;;;12.90;5.80;;;;;;;4.81;85.30;100842.20;87167;1288;89455;-71
2022/01/02 05:29:57;;;;;;;8.70;5.70;;;;;;;4.84;85.18;100829.70;87290;1287;94529;-71
2022/01/02 05:32:04;;;;;;;9.50;4.80;;;;;;;4.82;85.49;100823.20;87254;1287;81594;-68
2022/01/02 05:34:13;;;;;;;9.50;5.10;;;;;;;4.78;85.48;100819.01;87293;1287;80523;-67
2022/01/02 05:36:23;;;;;;;8.20;5.20;;;;;;;4.78;85.60;100815.02;87176;1288;100368;-67
2022/01/02 05:38:29;;;;;;;8.40;6.00;;;;;;;4.79;86.00;100812.63;87249;1287;87799;-67
2022/01/02 05:40:38;;;;;;;8.80;5.30;;;;;;;4.84;85.85;100813.81;87263;1287;94679;-69
2022/01/02 05:42:47;;;;;;;7.50;4.70;;;;;;;4.85;85.95;100809.70;87263;1287;80733;-69
2022/01/02 05:44:56;;;;;;;8.40;5.40;;;;;;;4.86;85.93;100804.70;87296;1287;80188;-70
2022/01/02 05:47:02;;;;;;;8.40;5.70;;;;;;;4.86;86.12;100799.64;87267;1287;100067;-69
2022/01/02 05:49:13;;;;;;;10.10;6.10;;;;;;;4.87;86.27;100787.78;87151;1288;87066;-70
2022/01/02 05:51:22;;;;;;;9.40;6.00;;;;;;;4.84;86.36;100781.78;87037;1290;94187;-70
2022/01/02 05:53:30;;;;;;;10.70;5.80;;;;;;;4.79;86.26;100780.19;87283;1287;78611;-70
2022/01/02 05:55:36;;;;;;;11.20;6.50;;;;;;;4.79;86.14;100772.80;87316;1287;81441;-64
2022/01/02 05:57:42;;;;;;;10.10;6.70;;;;;;;4.78;86.36;100768.80;87070;1290;98198;-62
2022/01/02 05:59:48;;;;;;;10.70;6.50;;;;;;;4.75;86.62;100776.63;87299;1287;87073;-63
2022/01/02 06:01:54;;;;;;;10.40;6.40;;;;;;;4.74;86.66;100774.17;87263;1287;93525;-64
2022/01/02 06:04:00;;;;;;;11.30;6.70;;;;;;;4.78;86.68;100777.06;87261;1287;79957;-65
2022/01/02 06:06:07;;;;;;;10.30;6.60;;;;;;;4.80;86.67;100780.27;86995;1290;80885;-69
2022/01/02 06:08:16;;;;;;;12.70;6.70;;;;;;;4.83;86.80;100781.36;87269;1287;98067;-69
2022/01/02 06:10:23;;;;;;;12.20;7.70;;;;;;;4.91;86.80;100776.88;87178;1288;89713;-68
2022/01/02 06:12:29;;;;;;;12.00;7.30;;;;;;;4.92;87.07;100770.71;87270;1288;95444;-67
2022/01/02 06:14:38;;;;;;;12.30;6.80;;;;;;;4.96;86.89;100764.12;87187;1288;80542;-69
2022/01/02 06:16:44;;;;;;;11.60;7.40;;;;;;;4.97;86.91;100761.13;87272;1287;82288;-70
2022/01/02 06:18:51;;;;;;;9.10;7.00;;;;;;;5.02;86.89;100760.97;87241;1287;99626;-69
2022/01/02 06:20:57;;;;;;;11.30;8.40;;;;;;;4.98;87.05;100758.86;87284;1287;87849;-67
2022/01/02 06:23:05;;;;;;;13.60;8.30;;;;;;;5.00;87.07;100761.17;87243;1287;96152;-68
2022/01/02 06:25:12;;;;;;;12.90;8.50;;;;;;;5.00;87.14;100760.99;87232;1287;80477;-67
2022/01/02 06:27:19;;;;;;;16.30;9.40;;;;;;;4.99;86.98;100766.09;87207;1288;80413;-68
2022/01/02 06:29:28;;;;;;;13.10;8.70;;;;;;;5.00;86.91;100761.58;87291;1287;98552;-68
2022/01/02 06:31:38;;;;;;;16.40;9.20;;;;;;;5.00;87.05;100755.11;87192;1288;88417;-70
2022/01/02 06:33:44;;;;;;;15.00;8.60;;;;;;;4.98;87.12;100742.65;87162;1288;94890;-68
2022/01/02 06:35:50;;;;;;;16.00;10.00;;;;;;;4.99;87.17;100739.73;87266;1287;79707;-70
2022/01/02 06:37:56;;;;;;;14.10;8.90;;;;;;;5.03;87.06;100733.78;87300;1287;80344;-70
2022/01/02 06:40:01;;;;;;;17.90;10.90;;;;;;;5.10;87.11;100721.86;87294;1287;98465;-75
2022/01/02 06:42:08;;;;;;;15.70;10.00;;;;;;;5.15;87.31;100713.33;87271;1287;86779;-73
2022/01/02 06:44:14;;;;;;;15.80;9.80;;;;;;;5.18;87.43;100710.33;87202;1287;93972;-76
2022/01/02 06:46:20;;;;;;;17.30;10.50;;;;;;;5.18;87.32;100707.14;87254;1287;81737;-70
2022/01/02 06:48:28;;;;;;;19.90;11.80;;;;;;;5.23;87.31;100707.02;87166;1288;82182;-69
2022/01/02 06:50:34;;;;;;;16.90;11.80;;;;;;;5.27;87.25;100706.12;87284;1287;99345;-70
2022/01/02 06:52:40;;;;;;;19.40;12.40;;;;;;;5.25;87.22;100698.59;87157;1288;89384;-71
2022/01/02 06:54:46;;;;;;;19.40;12.30;;;;;;;5.16;87.67;100691.48;87270;1287;94732;-75
2022/01/02 06:56:51;;;;;;;19.80;11.90;;;;;;;5.04;88.01;100697.67;87160;1288;78354;-75
2022/01/02 06:58:57;;;;;;;17.90;12.50;;;;;;;5.00;87.83;100693.04;87145;1288;83231;-73
2022/01/02 07:01:07;;;;;;;20.10;11.40;;;;;;;4.97;87.95;100693.10;87278;1287;99968;-73
2022/01/02 07:03:15;;;;;;;16.30;11.60;;;;;;;5.01;88.07;100693.59;87292;1288;88120;-75
2022/01/02 07:05:24;;;;;;;17.80;10.80;;;;;;;5.08;88.01;100690.27;87205;1288;95664;-73
2022/01/02 07:07:33;;;;;;;19.60;11.80;;;;;;;5.18;87.99;100694.15;87263;1287;80096;-72
2022/01/02 07:09:39;;;;;;;19.70;12.20;;;;;;;5.19;88.38;100698.88;87231;1288;81980;-74
2022/01/02 07:11:48;;;;;;;16.10;10.40;;;;;;;5.16;88.47;100691.26;87176;1287;98520;-75
2022/01/02 07:13:54;;;;;;;18.60;11.40;;;;;;;5.20;88.25;100694.98;87175;1288;89342;-74
2022/01/02 07:15:59;;;;;;;19.30;11.80;;;;;;;5.28;88.20;100702.05;87208;1287;94064;-75
2022/01/02 07:18:08;;;;;;;21.10;13.10;;;;;;;5.33;88.20;100691.54;87285;1287;78511;-74
2022/01/02 07:20:14;;;;;;;20.00;12.10;;;;;;;5.39;88.15;100685.77;87279;1287;82860;-74
2022/01/02 07:22:20;;;;;;;23.50;14.00;;;;;;;5.39;88.23;100681.69;87172;1288;100082;-73
2022/01/02 07:24:29;;;;;;;21.20;13.00;;;;;;;5.36;88.26;100675.20;87276;1287;87193;-72
2022/01/02 07:26:34;;;;;;;22.10;12.90;;;;;;;5.36;88.22;100667.20;87254;1287;94734;-71
2022/01/02 07:28:40;;;;;;;21.10;13.70;;;;;;;5.35;88.27;100666.06;87262;1287;80476;-70
2022/01/02 07:30:46;;;;;;;20.80;12.10;;;;;;;5.35;88.37;100654.63;87259;1287;80052;-73
2022/01/02 07:32:52;;;;;;;22.70;12.50;;;;;;;5.37;88.36;100657.23;87259;1287;98593;-73
2022/01/02 07:34:58;;;;;;;20.50;12.00;;;;;;;5.44;88.43;100660.92;87262;1287;88281;-70
2022/01/02 07:37:04;;;;;;;20.10;12.40;;;;;;;5.48;88.57;100659.99;87051;1290;94051;-71
2022/01/02 07:39:10;;;;;;;21.20;13.00;;;;;;;5.50;88.68;100650.11;87247;1287;81949;-71
2022/01/02 07:41:16;;;;;;;21.30;11.70;;;;;;;5.50;88.61;100637.91;87273;1287;80292;-72
2022/01/02 07:43:25;;;;;;;21.80;13.90;;;;;;;5.56;88.70;100636.13;87262;1287;100660;-74
2022/01/02 07:45:30;;;;;;;23.00;14.50;;;;;;;5.59;88.81;100630.81;87212;1288;87387;-68
2022/01/02 07:47:38;;;;;;;27.40;14.20;;;;;;;5.60;88.75;100630.70;87180;1287;95152;-70
2022/01/02 07:49:47;;;;;;;29.40;16.00;;;;;;;5.64;88.62;100627.10;87364;1287;78429;-70
2022/01/02 07:51:55;;;;;;;28.60;13.80;;;;;;;5.60;88.83;100620.48;87398;1287;81951;-71
2022/01/02 07:54:01;;;;;;;23.50;13.60;;;;;;;5.57;88.92;100610.83;87041;1290;99403;-70
2022/01/02 07:56:07;;;;;;;24.10;14.10;;;;;;;5.50;89.18;100602.80;87374;1287;89022;-73
2022/01/02 07:58:13;;;;;;;21.90;13.20;;;;;;;5.50;89.14;100595.67;87359;1287;93218;-73
2022/01/02 08:00:21;;;;;;;25.80;14.70;;;;;;;5.55;89.02;100594.82;87278;1287;81658;-72
2022/01/02 08:02:29;;;;;;;22.60;13.30;;;;;;;5.59;89.31;100590.55;87259;1288;80220;-71
2022/01/02 08:04:35;;;;;;;26.40;14.20;;;;;;;5.60;89.55;100581.27;87382;1287;99521;-68
2022/01/02 08:06:41;;;;;;;22.70;13.80;;;;;;;5.63;89.74;100579.80;87304;1287;89468;-69
2022/01/02 08:08:47;;;;;;;22.20;13.60;;;;;;;5.67;89.55;100578.84;87253;1287;94519;-69
2022/01/02 08:10:56;;;;;;;25.40;13.50;;;;;;;5.71;89.33;100576.84;87220;1288;80369;-69
2022/01/02 08:13:02;;;;;;;23.00;13.60;;;;;;;5.78;89.57;100578.27;87259;1288;81700;-68
2022/01/02 08:15:10;;;;;;;25.50;13.80;;;;;;;5.84;89.65;100569.98;87286;1287;100120;-69
2022/01/02 08:17:19;;;;;;;25.10;14.30;;;;;;;5.93;89.46;100565.69;87265;1287;89095;-68
2022/01/02 08:19:30;;;;;;;25.80;15.20;;;;;;;6.02;89.46;100571.19;87188;1288;94828;-70
2022/01/02 08:21:40;;;;;;;24.80;14.10;;;;;;;6.04;89.40;100575.84;87248;1287;79389;-69
2022/01/02 08:23:45;;;;;;;24.00;13.90;;;;;;;6.06;89.46;100571.69;87190;1288;80475;-70
2022/01/02 08:25:51;;;;;;;26.30;13.60;;;;;;;6.08;89.39;100574.38;87205;1287;98417;-70
2022/01/02 08:27:57;;;;;;;24.10;13.70;;;;;;;6.14;89.28;100574.50;87152;1288;88857;-69
2022/01/02 08:30:04;;;;;;;25.30;14.80;;;;;;;6.22;89.35;100582.06;87236;1287;93894;-67
2022/01/02 08:32:14;;;;;;;26.90;14.10;;;;;;;6.31;89.45;100578.94;87262;1287;81001;-69
2022/01/02 08:34:19;;;;;;;24.60;13.60;;;;;;;6.40;89.25;100576.35;87284;1287;80537;-69
2022/01/02 08:36:26;;;;;;;25.90;15.00;;;;;;;6.46;89.42;100565.79;87167;1287;97811;-69
2022/01/02 08:38:32;;;;;;;23.30;13.80;;;;;;;6.47;89.38;100554.55;87197;1288;89348;-69
2022/01/02 08:40:39;;;;;;;29.20;15.70;;;;;;;6.50;89.56;100560.47;87254;1287;94870;-69
2022/01/02 08:42:48;;;;;;;29.80;16.10;;;;;;;6.56;89.30;100555.98;87232;1287;79396;-70
2022/01/02 08:44:57;;;;;;;28.30;14.70;;;;;;;6.54;89.29;100558.62;87273;1287;80652;-69
2022/01/02 08:47:02;;;;;;;26.60;14.70;;;;;;;6.56;89.29;100565.61;87241;1287;99264;-70
2022/01/02 08:49:08;;;;;;;27.10;14.00;;;;;;;6.50;89.37;100568.70;87265;1287;87741;-69
2022/01/02 08:51:14;;;;;;;25.70;15.10;;;;;;;6.55;89.33;100556.95;87155;1288;95875;-69
2022/01/02 08:53:21;;;;;;;28.30;16.00;;;;;;;6.64;89.25;100550.31;87238;1287;80025;-69
2022/01/02 08:55:26;;;;;;;24.30;14.60;;;;;;;6.76;89.16;100543.77;87198;1288;83362;-69
2022/01/02 08:57:32;;;;;;;26.40;14.80;;;;;;;6.80;89.25;100533.31;87224;1287;99749;-68
2022/01/02 08:59:42;;;;;;;26.00;15.70;;;;;;;6.85;89.21;100527.42;87259;1287;89069;-69
2022/01/02 09:01:48;;;;;;;25.40;15.40;;;;;;;6.92;89.44;100526.65;87238;1287;95801;-70
2022/01/02 09:03:54;;;;;;;24.80;15.70;;;;;;;6.96;89.27;100523.20;87258;1287;79511;-70
2022/01/02 09:06:00;;;;;;;25.90;15.10;;;;;;;7.00;89.51;100510.83;87328;1287;82219;-69
2022/01/02 09:08:06;;;;;;;24.40;15.20;;;;;;;7.04;89.35;100497.98;87150;1288;99977;-70
2022/01/02 09:10:16;;;;;;;26.10;15.70;;;;;;;7.03;89.38;100495.75;87176;1288;87680;-68
2022/01/02 09:12:22;;;;;;;25.40;15.40;;;;;;;7.04;89.38;100493.98;87255;1287;96266;-69
2022/01/02 09:14:28;;;;;;;28.10;16.30;;;;;;;7.10;89.45;100491.25;87065;1289;78707;-70
2022/01/02 09:16:34;;;;;;;26.60;16.20;;;;;;;7.10;89.31;100485.19;87237;1287;81809;-69
2022/01/02 09:18:42;;;;;;;25.20;15.30;;;;;;;7.16;89.60;100487.06;87298;1287;99964;-70
2022/01/02 09:20:48;;;;;;;26.50;15.50;;;;;;;7.23;89.51;100487.94;87291;1287;87513;-68
2022/01/02 09:22:55;;;;;;;27.30;16.10;;;;;;;7.27;89.33;100484.73;87359;1287;95661;-69
2022/01/02 09:25:01;;;;;;;23.80;14.90;;;;;;;7.32;89.33;100481.34;87397;1287;78644;-69
2022/01/02 09:27:07;;;;;;;23.60;15.20;;;;;;;7.37;89.30;100479.52;87351;1287;80970;-68
2022/01/02 09:29:16;;;;;;;30.70;16.60;;;;;;;7.42;89.20;100471.07;87375;1287;98187;-69
2022/01/02 09:31:25;;;;;;;25.80;15.40;;;;;;;7.40;89.30;100466.97;87391;1287;88603;-70
2022/01/02 09:33:31;;;;;;;25.20;15.20;;;;;;;7.43;89.37;100459.88;87341;1287;94995;-69
2022/01/02 09:35:40;;;;;;;22.70;14.40;;;;;;;7.49;89.28;100454.37;87378;1287;81360;-70
2022/01/02 09:37:47;;;;;;;23.40;14.30;;;;;;;7.57;89.15;100445.19;87351;1287;80327;-70
2022/01/02 09:39:53;;;;;;;26.60;15.90;;;;;;;7.60;89.27;100444.16;87211;1288;99497;-71
2022/01/02 09:41:59;;;;;;;23.10;14.00;;;;;;;7.64;89.21;100442.84;87179;1288;88752;-70
2022/01/02 09:44:09;;;;;;;26.60;14.90;;;;;;;7.69;89.08;100436.02;87139;1288;94426;-68
2022/01/02 09:46:20;;;;;;;26.50;15.10;;;;;;;7.74;89.18;100429.71;87263;1287;78060;-70
2022/01/02 09:48:27;;;;;;;22.40;13.80;;;;;;;7.80;89.44;100422.92;87274;1287;80812;-71
2022/01/02 09:50:38;;;;;;;21.30;13.50;;;;;;;7.86;89.28;100421.35;87188;1288;97661;-71
2022/01/02 09:52:45;;;;;;;26.70;14.60;;;;;;;7.91;89.30;100409.15;87229;1287;89430;-70
2022/01/02 09:54:55;;;;;;;22.00;14.30;;;;;;;7.97;89.23;100391.98;87244;1287;95584;-70
2022/01/02 09:57:02;;;;;;;22.70;13.90;;;;;;;8.02;89.21;100379.96;87260;1287;82219;-70
2022/01/02 09:59:08;;;;;;;21.80;13.90;;;;;;;8.01;89.31;100368.86;87245;1287;83126;-70
2022/01/02 10:01:19;;;;;;;22.00;13.50;;;;;;;8.05;89.23;100366.29;87208;1287;99678;-70